sensor_id;sensor_type;location;lat;lon;timestamp;P1;durP1;ratioP1;P2;durP2;ratioP2
8632;SDS011;4354;49.832;10.746;2022-12-07T00:03:49;10.43;;;9.33;;
8632;SDS011;4354;49.832;10.746;2022-12-07T00:06:18;10.77;;;9.27;;
8632;SDS011;4354;49.832;10.746;2022-12-07T00:08:46;10.23;;;9.20;;
8632;SDS011;4354;49.832;10.746;2022-12-07T00:11:15;12.17;;;9.40;;
8632;SDS011;4354;49.832;10.746;2022-12-07T00:13:44;11.47;;;9.63;;
8632;SDS011;4354;49.832;10.746;2022-12-07T00:16:15;11.27;;;9.73;;
8632;SDS011;4354;49.832;10.746;2022-12-07T00:18:44;11.50;;;10.00;;
8632;SDS011;4354;49.832;10.746;2022-12-07T00:21:15;10.90;;;9.73;;
8632;SDS011;4354;49.832;10.746;2022-12-07T00:23:53;11.83;;;10.17;;
8632;SDS011;4354;49.832;10.746;2022-12-07T00:26:23;13.53;;;10.40;;
8632;SDS011;4354;49.832;10.746;2022-12-07T00:29:04;11.93;;;10.63;;
8632;SDS011;4354;49.832;10.746;2022-12-07T00:31:49;11.77;;;9.90;;
8632;SDS011;4354;49.832;10.746;2022-12-07T00:34:17;12.17;;;10.63;;
8632;SDS011;4354;49.832;10.746;2022-12-07T00:36:46;12.23;;;10.60;;
8632;SDS011;4354;49.832;10.746;2022-12-07T00:39:13;13.30;;;11.80;;
8632;SDS011;4354;49.832;10.746;2022-12-07T00:41:41;12.10;;;10.60;;
8632;SDS011;4354;49.832;10.746;2022-12-07T00:44:08;14.17;;;10.80;;
8632;SDS011;4354;49.832;10.746;2022-12-07T00:46:35;13.10;;;10.80;;
8632;SDS011;4354;49.832;10.746;2022-12-07T00:49:02;13.13;;;11.43;;
8632;SDS011;4354;49.832;10.746;2022-12-07T00:51:29;13.40;;;10.97;;
8632;SDS011;4354;49.832;10.746;2022-12-07T00:53:56;12.17;;;10.17;;
8632;SDS011;4354;49.832;10.746;2022-12-07T00:56:24;13.03;;;10.43;;
8632;SDS011;4354;49.832;10.746;2022-12-07T00:58:53;13.33;;;10.47;;
8632;SDS011;4354;49.832;10.746;2022-12-07T01:01:22;13.73;;;10.17;;
8632;SDS011;4354;49.832;10.746;2022-12-07T01:03:51;11.30;;;9.57;;
8632;SDS011;4354;49.832;10.746;2022-12-07T01:06:19;13.03;;;9.77;;
8632;SDS011;4354;49.832;10.746;2022-12-07T01:08:47;14.17;;;9.30;;
8632;SDS011;4354;49.832;10.746;2022-12-07T01:11:15;11.90;;;9.47;;
8632;SDS011;4354;49.832;10.746;2022-12-07T01:13:43;10.90;;;9.33;;
8632;SDS011;4354;49.832;10.746;2022-12-07T01:16:11;12.97;;;9.63;;
8632;SDS011;4354;49.832;10.746;2022-12-07T01:18:40;13.67;;;9.73;;
8632;SDS011;4354;49.832;10.746;2022-12-07T01:21:11;13.33;;;10.60;;
8632;SDS011;4354;49.832;10.746;2022-12-07T01:23:43;12.00;;;10.33;;
8632;SDS011;4354;49.832;10.746;2022-12-07T01:26:11;13.30;;;10.60;;
8632;SDS011;4354;49.832;10.746;2022-12-07T01:28:39;14.33;;;11.33;;
8632;SDS011;4354;49.832;10.746;2022-12-07T01:31:10;14.80;;;11.53;;
8632;SDS011;4354;49.832;10.746;2022-12-07T01:33:42;13.63;;;11.60;;
8632;SDS011;4354;49.832;10.746;2022-12-07T01:38:47;13.30;;;10.93;;
8632;SDS011;4354;49.832;10.746;2022-12-07T01:41:18;12.67;;;10.93;;
8632;SDS011;4354;49.832;10.746;2022-12-07T01:46:59;15.37;;;12.00;;
8632;SDS011;4354;49.832;10.746;2022-12-07T01:49:29;15.07;;;11.77;;
8632;SDS011;4354;49.832;10.746;2022-12-07T01:52:07;14.30;;;12.03;;
8632;SDS011;4354;49.832;10.746;2022-12-07T01:54:42;16.27;;;12.23;;
8632;SDS011;4354;49.832;10.746;2022-12-07T01:57:10;15.53;;;11.27;;
8632;SDS011;4354;49.832;10.746;2022-12-07T01:59:39;17.50;;;13.07;;
8632;SDS011;4354;49.832;10.746;2022-12-07T02:02:10;17.70;;;14.00;;
8632;SDS011;4354;49.832;10.746;2022-12-07T02:12:37;16.20;;;11.67;;
8632;SDS011;4354;49.832;10.746;2022-12-07T02:15:04;14.77;;;11.70;;
8632;SDS011;4354;49.832;10.746;2022-12-07T02:17:33;15.87;;;12.37;;
8632;SDS011;4354;49.832;10.746;2022-12-07T02:24:13;14.17;;;11.47;;
8632;SDS011;4354;49.832;10.746;2022-12-07T02:26:56;14.73;;;11.57;;
8632;SDS011;4354;49.832;10.746;2022-12-07T02:29:49;16.13;;;12.80;;
8632;SDS011;4354;49.832;10.746;2022-12-07T02:32:35;16.93;;;13.07;;
8632;SDS011;4354;49.832;10.746;2022-12-07T02:43:27;18.27;;;13.33;;
8632;SDS011;4354;49.832;10.746;2022-12-07T02:46:04;16.27;;;12.40;;
8632;SDS011;4354;49.832;10.746;2022-12-07T02:48:36;16.63;;;12.77;;
8632;SDS011;4354;49.832;10.746;2022-12-07T02:51:05;17.53;;;12.83;;
8632;SDS011;4354;49.832;10.746;2022-12-07T03:04:11;21.03;;;13.80;;
8632;SDS011;4354;49.832;10.746;2022-12-07T03:07:00;18.40;;;12.63;;
8632;SDS011;4354;49.832;10.746;2022-12-07T03:09:37;18.33;;;13.27;;
8632;SDS011;4354;49.832;10.746;2022-12-07T03:12:10;16.40;;;12.63;;
8632;SDS011;4354;49.832;10.746;2022-12-07T03:14:47;16.37;;;12.57;;
8632;SDS011;4354;49.832;10.746;2022-12-07T03:17:27;18.40;;;13.43;;
8632;SDS011;4354;49.832;10.746;2022-12-07T03:19:59;19.03;;;13.87;;
8632;SDS011;4354;49.832;10.746;2022-12-07T03:22:30;19.30;;;13.60;;
8632;SDS011;4354;49.832;10.746;2022-12-07T03:25:01;16.57;;;12.97;;
8632;SDS011;4354;49.832;10.746;2022-12-07T03:27:40;18.77;;;14.27;;
8632;SDS011;4354;49.832;10.746;2022-12-07T03:30:24;16.67;;;12.77;;
8632;SDS011;4354;49.832;10.746;2022-12-07T03:33:17;18.27;;;13.57;;
8632;SDS011;4354;49.832;10.746;2022-12-07T03:36:14;24.67;;;13.97;;
8632;SDS011;4354;49.832;10.746;2022-12-07T03:38:57;16.93;;;13.07;;
8632;SDS011;4354;49.832;10.746;2022-12-07T03:41:33;17.73;;;13.63;;
8632;SDS011;4354;49.832;10.746;2022-12-07T03:44:07;20.07;;;14.03;;
8632;SDS011;4354;49.832;10.746;2022-12-07T03:49:19;18.40;;;13.90;;
8632;SDS011;4354;49.832;10.746;2022-12-07T03:52:15;20.10;;;14.57;;
8632;SDS011;4354;49.832;10.746;2022-12-07T03:57:31;17.87;;;13.67;;
8632;SDS011;4354;49.832;10.746;2022-12-07T04:00:00;19.30;;;14.20;;
8632;SDS011;4354;49.832;10.746;2022-12-07T04:02:30;19.40;;;14.30;;
8632;SDS011;4354;49.832;10.746;2022-12-07T04:04:58;21.57;;;14.13;;
8632;SDS011;4354;49.832;10.746;2022-12-07T04:07:25;19.73;;;14.73;;
8632;SDS011;4354;49.832;10.746;2022-12-07T04:09:52;17.63;;;13.50;;
8632;SDS011;4354;49.832;10.746;2022-12-07T04:12:23;21.33;;;14.73;;
8632;SDS011;4354;49.832;10.746;2022-12-07T04:14:50;18.70;;;13.47;;
8632;SDS011;4354;49.832;10.746;2022-12-07T04:17:17;19.10;;;14.00;;
8632;SDS011;4354;49.832;10.746;2022-12-07T04:19:44;21.23;;;14.20;;
8632;SDS011;4354;49.832;10.746;2022-12-07T04:22:11;20.93;;;13.90;;
8632;SDS011;4354;49.832;10.746;2022-12-07T04:24:38;19.30;;;13.30;;
8632;SDS011;4354;49.832;10.746;2022-12-07T04:27:05;17.87;;;13.50;;
8632;SDS011;4354;49.832;10.746;2022-12-07T04:29:32;18.67;;;13.13;;
8632;SDS011;4354;49.832;10.746;2022-12-07T04:31:59;17.23;;;13.93;;
8632;SDS011;4354;49.832;10.746;2022-12-07T04:34:26;22.03;;;14.57;;
8632;SDS011;4354;49.832;10.746;2022-12-07T04:36:52;20.03;;;12.83;;
8632;SDS011;4354;49.832;10.746;2022-12-07T04:39:21;18.60;;;13.30;;
8632;SDS011;4354;49.832;10.746;2022-12-07T04:41:53;20.13;;;14.60;;
8632;SDS011;4354;49.832;10.746;2022-12-07T04:44:20;18.17;;;13.40;;
8632;SDS011;4354;49.832;10.746;2022-12-07T04:46:48;19.60;;;14.07;;
8632;SDS011;4354;49.832;10.746;2022-12-07T04:49:15;18.77;;;13.37;;
8632;SDS011;4354;49.832;10.746;2022-12-07T04:51:43;18.70;;;13.87;;
8632;SDS011;4354;49.832;10.746;2022-12-07T04:54:10;19.83;;;13.87;;
8632;SDS011;4354;49.832;10.746;2022-12-07T04:56:38;20.37;;;13.77;;
8632;SDS011;4354;49.832;10.746;2022-12-07T04:59:05;21.57;;;13.27;;
8632;SDS011;4354;49.832;10.746;2022-12-07T05:01:33;18.30;;;13.20;;
8632;SDS011;4354;49.832;10.746;2022-12-07T05:04:00;17.07;;;13.70;;
8632;SDS011;4354;49.832;10.746;2022-12-07T05:06:27;16.83;;;13.17;;
8632;SDS011;4354;49.832;10.746;2022-12-07T05:08:54;21.93;;;14.43;;
8632;SDS011;4354;49.832;10.746;2022-12-07T05:11:22;19.10;;;13.63;;
8632;SDS011;4354;49.832;10.746;2022-12-07T05:16:35;16.33;;;12.57;;
8632;SDS011;4354;49.832;10.746;2022-12-07T05:19:03;16.30;;;12.97;;
8632;SDS011;4354;49.832;10.746;2022-12-07T05:21:31;17.10;;;12.00;;
8632;SDS011;4354;49.832;10.746;2022-12-07T05:24:19;14.80;;;11.83;;
8632;SDS011;4354;49.832;10.746;2022-12-07T05:26:46;19.50;;;12.63;;
8632;SDS011;4354;49.832;10.746;2022-12-07T05:29:14;16.37;;;13.13;;
8632;SDS011;4354;49.832;10.746;2022-12-07T05:31:43;18.60;;;13.43;;
8632;SDS011;4354;49.832;10.746;2022-12-07T05:34:10;16.87;;;12.63;;
8632;SDS011;4354;49.832;10.746;2022-12-07T05:36:38;16.83;;;13.20;;
8632;SDS011;4354;49.832;10.746;2022-12-07T05:39:05;19.10;;;13.70;;
8632;SDS011;4354;49.832;10.746;2022-12-07T05:41:33;16.90;;;13.47;;
8632;SDS011;4354;49.832;10.746;2022-12-07T05:44:19;17.30;;;13.23;;
8632;SDS011;4354;49.832;10.746;2022-12-07T05:46:46;20.13;;;13.20;;
8632;SDS011;4354;49.832;10.746;2022-12-07T05:49:12;18.47;;;13.53;;
8632;SDS011;4354;49.832;10.746;2022-12-07T05:51:39;19.27;;;14.07;;
8632;SDS011;4354;49.832;10.746;2022-12-07T05:54:06;22.50;;;15.40;;
8632;SDS011;4354;49.832;10.746;2022-12-07T05:56:33;20.10;;;14.37;;
8632;SDS011;4354;49.832;10.746;2022-12-07T05:59:00;20.33;;;14.13;;
8632;SDS011;4354;49.832;10.746;2022-12-07T06:02:08;21.03;;;15.00;;
8632;SDS011;4354;49.832;10.746;2022-12-07T06:04:39;19.10;;;14.27;;
8632;SDS011;4354;49.832;10.746;2022-12-07T06:07:08;19.07;;;14.33;;
8632;SDS011;4354;49.832;10.746;2022-12-07T06:09:36;21.73;;;14.83;;
8632;SDS011;4354;49.832;10.746;2022-12-07T06:12:06;20.63;;;14.40;;
8632;SDS011;4354;49.832;10.746;2022-12-07T06:14:55;20.80;;;13.57;;
8632;SDS011;4354;49.832;10.746;2022-12-07T06:17:22;19.27;;;14.30;;
8632;SDS011;4354;49.832;10.746;2022-12-07T06:19:49;23.93;;;14.43;;
8632;SDS011;4354;49.832;10.746;2022-12-07T06:22:16;21.83;;;14.87;;
8632;SDS011;4354;49.832;10.746;2022-12-07T06:24:43;19.77;;;14.37;;
8632;SDS011;4354;49.832;10.746;2022-12-07T06:27:10;18.43;;;13.70;;
8632;SDS011;4354;49.832;10.746;2022-12-07T06:29:37;19.97;;;14.47;;
8632;SDS011;4354;49.832;10.746;2022-12-07T06:32:04;19.93;;;13.70;;
8632;SDS011;4354;49.832;10.746;2022-12-07T06:34:31;20.00;;;14.50;;
8632;SDS011;4354;49.832;10.746;2022-12-07T06:36:58;19.47;;;14.10;;
8632;SDS011;4354;49.832;10.746;2022-12-07T06:39:26;20.50;;;14.57;;
8632;SDS011;4354;49.832;10.746;2022-12-07T06:41:54;16.83;;;12.77;;
8632;SDS011;4354;49.832;10.746;2022-12-07T06:44:22;18.77;;;13.70;;
8632;SDS011;4354;49.832;10.746;2022-12-07T06:46:50;17.37;;;13.47;;
8632;SDS011;4354;49.832;10.746;2022-12-07T06:49:21;18.23;;;12.53;;
8632;SDS011;4354;49.832;10.746;2022-12-07T06:51:47;20.10;;;13.57;;
8632;SDS011;4354;49.832;10.746;2022-12-07T06:54:14;16.13;;;12.57;;
8632;SDS011;4354;49.832;10.746;2022-12-07T06:56:42;18.40;;;13.03;;
8632;SDS011;4354;49.832;10.746;2022-12-07T06:59:09;17.33;;;12.63;;
8632;SDS011;4354;49.832;10.746;2022-12-07T07:01:36;16.70;;;12.43;;
8632;SDS011;4354;49.832;10.746;2022-12-07T07:04:03;18.03;;;12.97;;
8632;SDS011;4354;49.832;10.746;2022-12-07T07:06:30;17.07;;;12.77;;
8632;SDS011;4354;49.832;10.746;2022-12-07T07:08:57;17.80;;;12.77;;
8632;SDS011;4354;49.832;10.746;2022-12-07T07:11:24;18.00;;;13.03;;
8632;SDS011;4354;49.832;10.746;2022-12-07T07:13:51;16.63;;;12.77;;
8632;SDS011;4354;49.832;10.746;2022-12-07T07:16:18;17.80;;;13.57;;
8632;SDS011;4354;49.832;10.746;2022-12-07T07:18:44;18.57;;;13.57;;
8632;SDS011;4354;49.832;10.746;2022-12-07T07:21:11;17.73;;;12.90;;
8632;SDS011;4354;49.832;10.746;2022-12-07T07:23:38;17.97;;;13.00;;
8632;SDS011;4354;49.832;10.746;2022-12-07T07:26:05;16.97;;;13.03;;
8632;SDS011;4354;49.832;10.746;2022-12-07T07:28:32;18.03;;;12.53;;
8632;SDS011;4354;49.832;10.746;2022-12-07T07:30:59;17.10;;;13.43;;
8632;SDS011;4354;49.832;10.746;2022-12-07T07:33:26;19.70;;;13.40;;
8632;SDS011;4354;49.832;10.746;2022-12-07T07:35:52;16.37;;;12.37;;
8632;SDS011;4354;49.832;10.746;2022-12-07T07:38:19;17.33;;;12.43;;
8632;SDS011;4354;49.832;10.746;2022-12-07T07:40:46;15.60;;;11.47;;
8632;SDS011;4354;49.832;10.746;2022-12-07T07:43:13;16.37;;;11.73;;
8632;SDS011;4354;49.832;10.746;2022-12-07T07:45:40;14.30;;;11.57;;
8632;SDS011;4354;49.832;10.746;2022-12-07T07:48:10;15.63;;;11.93;;
8632;SDS011;4354;49.832;10.746;2022-12-07T07:50:37;19.77;;;12.17;;
8632;SDS011;4354;49.832;10.746;2022-12-07T07:53:04;15.63;;;12.17;;
8632;SDS011;4354;49.832;10.746;2022-12-07T07:55:30;18.87;;;13.37;;
8632;SDS011;4354;49.832;10.746;2022-12-07T07:57:57;18.90;;;11.87;;
8632;SDS011;4354;49.832;10.746;2022-12-07T08:00:24;18.23;;;12.60;;
8632;SDS011;4354;49.832;10.746;2022-12-07T08:02:51;16.73;;;12.20;;
8632;SDS011;4354;49.832;10.746;2022-12-07T08:05:18;17.10;;;12.93;;
8632;SDS011;4354;49.832;10.746;2022-12-07T08:07:45;18.87;;;14.57;;
8632;SDS011;4354;49.832;10.746;2022-12-07T08:10:12;21.83;;;15.07;;
8632;SDS011;4354;49.832;10.746;2022-12-07T08:12:40;17.47;;;13.97;;
8632;SDS011;4354;49.832;10.746;2022-12-07T08:15:27;18.73;;;14.50;;
8632;SDS011;4354;49.832;10.746;2022-12-07T08:17:56;16.50;;;13.10;;
8632;SDS011;4354;49.832;10.746;2022-12-07T08:20:22;20.27;;;13.97;;
8632;SDS011;4354;49.832;10.746;2022-12-07T08:22:49;20.13;;;13.80;;
8632;SDS011;4354;49.832;10.746;2022-12-07T08:25:17;19.03;;;13.47;;
8632;SDS011;4354;49.832;10.746;2022-12-07T08:27:44;17.17;;;13.33;;
8632;SDS011;4354;49.832;10.746;2022-12-07T08:30:10;21.77;;;13.53;;
8632;SDS011;4354;49.832;10.746;2022-12-07T08:32:37;19.33;;;13.97;;
8632;SDS011;4354;49.832;10.746;2022-12-07T08:35:04;19.10;;;15.10;;
8632;SDS011;4354;49.832;10.746;2022-12-07T08:37:32;17.93;;;13.63;;
8632;SDS011;4354;49.832;10.746;2022-12-07T08:39:59;19.73;;;14.03;;
8632;SDS011;4354;49.832;10.746;2022-12-07T08:42:27;19.17;;;13.83;;
8632;SDS011;4354;49.832;10.746;2022-12-07T08:44:56;19.77;;;14.53;;
8632;SDS011;4354;49.832;10.746;2022-12-07T08:47:23;19.37;;;13.63;;
8632;SDS011;4354;49.832;10.746;2022-12-07T08:49:51;18.67;;;13.70;;
8632;SDS011;4354;49.832;10.746;2022-12-07T08:52:19;19.60;;;14.40;;
8632;SDS011;4354;49.832;10.746;2022-12-07T08:54:46;19.47;;;14.57;;
8632;SDS011;4354;49.832;10.746;2022-12-07T08:57:13;21.73;;;14.67;;
8632;SDS011;4354;49.832;10.746;2022-12-07T08:59:40;20.10;;;14.70;;
8632;SDS011;4354;49.832;10.746;2022-12-07T09:02:07;17.90;;;14.03;;
8632;SDS011;4354;49.832;10.746;2022-12-07T09:04:35;18.80;;;14.27;;
8632;SDS011;4354;49.832;10.746;2022-12-07T09:07:02;19.87;;;14.37;;
8632;SDS011;4354;49.832;10.746;2022-12-07T09:09:29;22.43;;;15.40;;
8632;SDS011;4354;49.832;10.746;2022-12-07T09:11:56;18.93;;;14.03;;
8632;SDS011;4354;49.832;10.746;2022-12-07T09:14:23;19.13;;;14.70;;
8632;SDS011;4354;49.832;10.746;2022-12-07T09:16:50;20.37;;;14.67;;
8632;SDS011;4354;49.832;10.746;2022-12-07T09:19:17;22.27;;;15.27;;
8632;SDS011;4354;49.832;10.746;2022-12-07T09:21:44;20.83;;;15.37;;
8632;SDS011;4354;49.832;10.746;2022-12-07T09:24:11;21.47;;;15.13;;
8632;SDS011;4354;49.832;10.746;2022-12-07T09:26:39;19.53;;;14.30;;
8632;SDS011;4354;49.832;10.746;2022-12-07T09:29:06;22.80;;;15.20;;
8632;SDS011;4354;49.832;10.746;2022-12-07T09:31:35;22.43;;;15.53;;
8632;SDS011;4354;49.832;10.746;2022-12-07T09:34:02;20.97;;;15.50;;
8632;SDS011;4354;49.832;10.746;2022-12-07T09:36:34;21.53;;;14.53;;
8632;SDS011;4354;49.832;10.746;2022-12-07T09:39:00;19.57;;;14.53;;
8632;SDS011;4354;49.832;10.746;2022-12-07T09:41:29;21.80;;;16.27;;
8632;SDS011;4354;49.832;10.746;2022-12-07T09:44:00;21.33;;;15.10;;
8632;SDS011;4354;49.832;10.746;2022-12-07T09:46:33;20.70;;;15.63;;
8632;SDS011;4354;49.832;10.746;2022-12-07T09:49:03;23.53;;;16.20;;
8632;SDS011;4354;49.832;10.746;2022-12-07T09:51:31;18.90;;;14.57;;
8632;SDS011;4354;49.832;10.746;2022-12-07T09:53:58;24.10;;;15.63;;
8632;SDS011;4354;49.832;10.746;2022-12-07T09:56:28;21.00;;;15.40;;
8632;SDS011;4354;49.832;10.746;2022-12-07T09:59:01;22.63;;;15.17;;
8632;SDS011;4354;49.832;10.746;2022-12-07T10:01:30;19.50;;;15.60;;
8632;SDS011;4354;49.832;10.746;2022-12-07T10:04:06;18.93;;;14.90;;
8632;SDS011;4354;49.832;10.746;2022-12-07T10:06:44;19.57;;;15.33;;
8632;SDS011;4354;49.832;10.746;2022-12-07T10:09:13;21.00;;;14.40;;
8632;SDS011;4354;49.832;10.746;2022-12-07T10:11:57;21.93;;;14.93;;
8632;SDS011;4354;49.832;10.746;2022-12-07T10:14:31;19.77;;;15.27;;
8632;SDS011;4354;49.832;10.746;2022-12-07T10:17:30;21.03;;;15.17;;
8632;SDS011;4354;49.832;10.746;2022-12-07T10:23:04;19.63;;;13.97;;
8632;SDS011;4354;49.832;10.746;2022-12-07T10:25:39;22.50;;;15.73;;
8632;SDS011;4354;49.832;10.746;2022-12-07T10:33:36;18.70;;;14.80;;
8632;SDS011;4354;49.832;10.746;2022-12-07T10:39:03;18.33;;;14.27;;
8632;SDS011;4354;49.832;10.746;2022-12-07T10:41:30;18.53;;;15.40;;
8632;SDS011;4354;49.832;10.746;2022-12-07T10:43:57;20.00;;;14.83;;
8632;SDS011;4354;49.832;10.746;2022-12-07T10:49:33;21.13;;;14.00;;
8632;SDS011;4354;49.832;10.746;2022-12-07T11:11:35;18.67;;;13.17;;
8632;SDS011;4354;49.832;10.746;2022-12-07T11:19:10;16.30;;;11.73;;
8632;SDS011;4354;49.832;10.746;2022-12-07T11:21:45;15.60;;;11.70;;
8632;SDS011;4354;49.832;10.746;2022-12-07T11:27:21;14.30;;;11.50;;
8632;SDS011;4354;49.832;10.746;2022-12-07T11:38:03;13.77;;;9.90;;
8632;SDS011;4354;49.832;10.746;2022-12-07T11:40:53;11.63;;;9.53;;
8632;SDS011;4354;49.832;10.746;2022-12-07T11:44:02;13.43;;;9.60;;
8632;SDS011;4354;49.832;10.746;2022-12-07T11:46:45;13.73;;;10.03;;
8632;SDS011;4354;49.832;10.746;2022-12-07T11:49:20;11.57;;;9.80;;
8632;SDS011;4354;49.832;10.746;2022-12-07T11:51:48;11.57;;;9.43;;
8632;SDS011;4354;49.832;10.746;2022-12-07T11:54:26;13.03;;;10.37;;
8632;SDS011;4354;49.832;10.746;2022-12-07T11:56:59;11.37;;;9.10;;
8632;SDS011;4354;49.832;10.746;2022-12-07T11:59:36;13.90;;;10.53;;
8632;SDS011;4354;49.832;10.746;2022-12-07T12:02:13;11.27;;;9.80;;
8632;SDS011;4354;49.832;10.746;2022-12-07T12:05:28;11.13;;;9.03;;
8632;SDS011;4354;49.832;10.746;2022-12-07T12:07:41;8.10;;;6.57;;
8632;SDS011;4354;49.832;10.746;2022-12-07T12:13:15;7.60;;;6.07;;
8632;SDS011;4354;49.832;10.746;2022-12-07T12:16:14;8.87;;;6.43;;
8632;SDS011;4354;49.832;10.746;2022-12-07T12:21:44;10.03;;;7.07;;
8632;SDS011;4354;49.832;10.746;2022-12-07T12:24:22;9.33;;;7.33;;
8632;SDS011;4354;49.832;10.746;2022-12-07T12:26:52;9.40;;;7.30;;
8632;SDS011;4354;49.832;10.746;2022-12-07T12:29:27;9.23;;;7.63;;
8632;SDS011;4354;49.832;10.746;2022-12-07T12:42:48;10.37;;;7.30;;
8632;SDS011;4354;49.832;10.746;2022-12-07T12:45:26;10.30;;;7.57;;
8632;SDS011;4354;49.832;10.746;2022-12-07T12:47:58;8.90;;;6.27;;
8632;SDS011;4354;49.832;10.746;2022-12-07T12:50:33;6.90;;;6.20;;
8632;SDS011;4354;49.832;10.746;2022-12-07T12:58:46;8.20;;;6.73;;
8632;SDS011;4354;49.832;10.746;2022-12-07T13:03:54;8.97;;;6.33;;
8632;SDS011;4354;49.832;10.746;2022-12-07T13:09:01;8.83;;;6.60;;
8632;SDS011;4354;49.832;10.746;2022-12-07T13:11:32;10.43;;;7.20;;
8632;SDS011;4354;49.832;10.746;2022-12-07T13:17:10;9.03;;;6.80;;
8632;SDS011;4354;49.832;10.746;2022-12-07T13:24:57;8.13;;;7.27;;
8632;SDS011;4354;49.832;10.746;2022-12-07T13:27:26;8.20;;;6.73;;
8632;SDS011;4354;49.832;10.746;2022-12-07T13:29:54;7.70;;;6.20;;
8632;SDS011;4354;49.832;10.746;2022-12-07T13:32:24;7.63;;;6.60;;
8632;SDS011;4354;49.832;10.746;2022-12-07T13:34:52;7.77;;;6.73;;
8632;SDS011;4354;49.832;10.746;2022-12-07T13:40:15;7.47;;;5.97;;
8632;SDS011;4354;49.832;10.746;2022-12-07T13:42:45;9.20;;;6.17;;
8632;SDS011;4354;49.832;10.746;2022-12-07T13:50:53;8.43;;;5.70;;
8632;SDS011;4354;49.832;10.746;2022-12-07T13:53:22;8.07;;;6.40;;
8632;SDS011;4354;49.832;10.746;2022-12-07T13:55:49;8.90;;;5.50;;
8632;SDS011;4354;49.832;10.746;2022-12-07T13:58:20;8.00;;;5.70;;
8632;SDS011;4354;49.832;10.746;2022-12-07T14:00:48;6.50;;;5.47;;
8632;SDS011;4354;49.832;10.746;2022-12-07T14:05:43;7.20;;;5.80;;
8632;SDS011;4354;49.832;10.746;2022-12-07T14:13:33;8.60;;;5.93;;
8632;SDS011;4354;49.832;10.746;2022-12-07T14:16:54;8.80;;;7.37;;
8632;SDS011;4354;49.832;10.746;2022-12-07T14:19:02;8.80;;;5.97;;
8632;SDS011;4354;49.832;10.746;2022-12-07T14:21:32;6.87;;;5.97;;
8632;SDS011;4354;49.832;10.746;2022-12-07T14:26:53;8.37;;;5.20;;
8632;SDS011;4354;49.832;10.746;2022-12-07T14:31:54;6.53;;;5.40;;
8632;SDS011;4354;49.832;10.746;2022-12-07T14:34:22;7.20;;;5.97;;
8632;SDS011;4354;49.832;10.746;2022-12-07T14:36:50;6.17;;;5.07;;
8632;SDS011;4354;49.832;10.746;2022-12-07T14:39:16;7.53;;;5.37;;
8632;SDS011;4354;49.832;10.746;2022-12-07T14:41:43;6.73;;;5.00;;
8632;SDS011;4354;49.832;10.746;2022-12-07T14:44:20;6.60;;;5.53;;
8632;SDS011;4354;49.832;10.746;2022-12-07T14:46:53;8.67;;;5.60;;
8632;SDS011;4354;49.832;10.746;2022-12-07T14:49:40;6.77;;;5.30;;
8632;SDS011;4354;49.832;10.746;2022-12-07T14:52:10;8.00;;;5.80;;
8632;SDS011;4354;49.832;10.746;2022-12-07T14:55:04;6.27;;;5.47;;
8632;SDS011;4354;49.832;10.746;2022-12-07T14:57:31;6.80;;;5.23;;
8632;SDS011;4354;49.832;10.746;2022-12-07T14:59:58;8.70;;;6.27;;
8632;SDS011;4354;49.832;10.746;2022-12-07T15:02:25;7.60;;;5.83;;
8632;SDS011;4354;49.832;10.746;2022-12-07T15:04:52;7.60;;;6.80;;
8632;SDS011;4354;49.832;10.746;2022-12-07T15:07:19;9.73;;;6.40;;
8632;SDS011;4354;49.832;10.746;2022-12-07T15:09:48;10.93;;;5.93;;
8632;SDS011;4354;49.832;10.746;2022-12-07T15:12:15;9.03;;;6.83;;
8632;SDS011;4354;49.832;10.746;2022-12-07T15:14:44;13.37;;;7.10;;
8632;SDS011;4354;49.832;10.746;2022-12-07T15:17:11;9.83;;;7.13;;
8632;SDS011;4354;49.832;10.746;2022-12-07T15:19:55;13.27;;;8.33;;
8632;SDS011;4354;49.832;10.746;2022-12-07T15:22:21;11.23;;;7.43;;
8632;SDS011;4354;49.832;10.746;2022-12-07T15:24:48;9.40;;;6.60;;
8632;SDS011;4354;49.832;10.746;2022-12-07T15:27:15;7.87;;;7.07;;
8632;SDS011;4354;49.832;10.746;2022-12-07T15:29:42;11.90;;;6.90;;
8632;SDS011;4354;49.832;10.746;2022-12-07T15:32:09;9.50;;;6.83;;
8632;SDS011;4354;49.832;10.746;2022-12-07T15:34:36;9.17;;;6.70;;
8632;SDS011;4354;49.832;10.746;2022-12-07T15:37:06;7.83;;;6.23;;
8632;SDS011;4354;49.832;10.746;2022-12-07T15:39:33;9.03;;;6.20;;
8632;SDS011;4354;49.832;10.746;2022-12-07T15:42:00;8.43;;;5.73;;
8632;SDS011;4354;49.832;10.746;2022-12-07T15:44:27;7.80;;;5.43;;
8632;SDS011;4354;49.832;10.746;2022-12-07T15:47:12;7.67;;;5.70;;
8632;SDS011;4354;49.832;10.746;2022-12-07T15:49:39;7.73;;;5.93;;
8632;SDS011;4354;49.832;10.746;2022-12-07T15:52:06;8.87;;;5.50;;
8632;SDS011;4354;49.832;10.746;2022-12-07T15:54:33;6.80;;;5.67;;
8632;SDS011;4354;49.832;10.746;2022-12-07T15:57:00;6.97;;;5.37;;
8632;SDS011;4354;49.832;10.746;2022-12-07T15:59:27;7.70;;;5.40;;
8632;SDS011;4354;49.832;10.746;2022-12-07T16:01:55;7.03;;;5.17;;
8632;SDS011;4354;49.832;10.746;2022-12-07T16:04:22;10.73;;;5.47;;
8632;SDS011;4354;49.832;10.746;2022-12-07T16:06:49;6.87;;;5.57;;
8632;SDS011;4354;49.832;10.746;2022-12-07T16:09:17;7.13;;;5.70;;
8632;SDS011;4354;49.832;10.746;2022-12-07T16:11:45;10.63;;;5.60;;
8632;SDS011;4354;49.832;10.746;2022-12-07T16:14:13;8.03;;;5.60;;
8632;SDS011;4354;49.832;10.746;2022-12-07T16:16:40;6.77;;;5.77;;
8632;SDS011;4354;49.832;10.746;2022-12-07T16:19:08;11.63;;;5.93;;
8632;SDS011;4354;49.832;10.746;2022-12-07T16:21:37;9.07;;;5.40;;
8632;SDS011;4354;49.832;10.746;2022-12-07T16:24:04;8.77;;;5.33;;
8632;SDS011;4354;49.832;10.746;2022-12-07T16:26:32;7.20;;;5.40;;
8632;SDS011;4354;49.832;10.746;2022-12-07T16:28:58;7.27;;;5.10;;
8632;SDS011;4354;49.832;10.746;2022-12-07T16:31:26;8.10;;;5.70;;
8632;SDS011;4354;49.832;10.746;2022-12-07T16:33:55;8.07;;;7.00;;
8632;SDS011;4354;49.832;10.746;2022-12-07T16:36:23;7.87;;;6.43;;
8632;SDS011;4354;49.832;10.746;2022-12-07T16:39:12;9.03;;;7.00;;
8632;SDS011;4354;49.832;10.746;2022-12-07T16:41:39;9.63;;;7.03;;
8632;SDS011;4354;49.832;10.746;2022-12-07T16:44:07;10.07;;;7.47;;
8632;SDS011;4354;49.832;10.746;2022-12-07T16:46:37;8.20;;;7.03;;
8632;SDS011;4354;49.832;10.746;2022-12-07T16:49:04;10.13;;;7.43;;
8632;SDS011;4354;49.832;10.746;2022-12-07T16:51:31;11.10;;;6.80;;
8632;SDS011;4354;49.832;10.746;2022-12-07T16:54:00;10.37;;;7.33;;
8632;SDS011;4354;49.832;10.746;2022-12-07T16:56:27;9.73;;;7.67;;
8632;SDS011;4354;49.832;10.746;2022-12-07T16:58:57;9.90;;;7.93;;
8632;SDS011;4354;49.832;10.746;2022-12-07T17:01:24;9.27;;;8.13;;
8632;SDS011;4354;49.832;10.746;2022-12-07T17:03:54;11.17;;;8.10;;
8632;SDS011;4354;49.832;10.746;2022-12-07T17:06:24;11.80;;;9.07;;
8632;SDS011;4354;49.832;10.746;2022-12-07T17:08:52;11.80;;;9.00;;
8632;SDS011;4354;49.832;10.746;2022-12-07T17:11:20;14.07;;;8.77;;
8632;SDS011;4354;49.832;10.746;2022-12-07T17:13:49;12.00;;;9.50;;
8632;SDS011;4354;49.832;10.746;2022-12-07T17:16:35;12.47;;;9.63;;
8632;SDS011;4354;49.832;10.746;2022-12-07T17:19:06;11.63;;;8.93;;
8632;SDS011;4354;49.832;10.746;2022-12-07T17:21:35;12.60;;;9.83;;
8632;SDS011;4354;49.832;10.746;2022-12-07T17:24:03;12.47;;;9.57;;
8632;SDS011;4354;49.832;10.746;2022-12-07T17:26:32;15.37;;;10.47;;
8632;SDS011;4354;49.832;10.746;2022-12-07T17:29:02;12.93;;;10.57;;
8632;SDS011;4354;49.832;10.746;2022-12-07T17:31:31;15.53;;;11.97;;
8632;SDS011;4354;49.832;10.746;2022-12-07T17:33:59;18.70;;;11.57;;
8632;SDS011;4354;49.832;10.746;2022-12-07T17:36:28;16.67;;;11.63;;
8632;SDS011;4354;49.832;10.746;2022-12-07T17:38:58;15.13;;;10.90;;